Tiempo atmosférico en la estación meteorológica de Pedraza de Alba, Salamanca (897 m.)



Fecha
DESCASC
Temp. máxima en grados centígrados (hora)
DESCASC
Temp. mínima en grados centígrados (hora)
DESCASC
Temp. media en grados centígrados
DESCASC
Racha de viento máxima en m/sg (hora)
DESCASC
Velocidad máxima media en intervalos de 10 minutos(hora)
DESCASC
Precipitaciones diarias en mm
DESCASC
Precipitaciones de 00:00 a 06:00 en mm
DESCASC
Precipitaciones de 06:00 a 12:00 en mm
DESCASC
Precipitaciones de 12:00 a 18:00 en mm
DESCASC
Precipitaciones de 18:00 a 24:00 en mm
DESCASC
14-07-2019 29.1 (18:00) 14 (00:00) 21.6 7.22 (13:20) 3.89 (13:00) 0 0 0 0 0
13-07-2019 32.2 (15:30) 18.2 (00:00) 25.2 11.39 (16:20) 6.39 (16:20) 0 0 0 0 0
12-07-2019 37.1 (16:20) 14.6 (00:00) 25.8 9.17 (21:10) 5.28 (21:10) 0 0 0 0 0
11-07-2019 34.3 (18:10) 12 (00:00) 23.1 6.67 (14:20) 3.61 (14:50) 0 0 0 0 0
10-07-2019 29.9 (18:50) 9.9 (00:00) 19.9 7.78 (16:40) 3.61 (16:40) 0 0 0 0 0
09-07-2019 24.7 (18:20) 7.5 (00:00) 16.1 9.72 (19:50) 6.11 (19:50) 0 0 0 0 0
08-07-2019 24.4 (12:40) 12.1 (00:00) 18.3 10 (18:00) 5 (18:20) 0.6 0 0 0.6 0
07-07-2019 28.8 (16:20) 11.5 (00:00) 20.1 8.33 (19:00) 4.17 (17:10) 0 0 0 0 0
06-07-2019 28.8 (16:30) 10.6 (00:00) 19.7 11.11 (17:30) 5.83 (17:50) 0 0 0 0 0
05-07-2019 29.3 (16:10) 12.4 (00:00) 20.8 10.83 (17:10) 5.56 (17:00) 0 0 0 0 0
04-07-2019 29.1 (16:10) 13.3 (00:00) 21.2 10.28 (16:20) 5 (15:10) 0 0 0 0 0
03-07-2019 32.3 (16:10) 13.7 (00:00) 23 9.72 (14:50) 4.44 (21:00) 0 0 0 0 0
02-07-2019 31.6 (16:40) 11.8 (07:30) 21.7 11.67 (15:50) 5 (19:00) 0 0 0 0 0
01-07-2019 31.3 (17:00) 14.2 (06:50) 22.7 8.89 (16:50) 4.72 (17:20) 0 0 0 0 0
30-06-2019 33.8 (15:40) 16 (00:00) 24.9 10.28 (15:50) 5.83 (15:50) 0 0 0 0 0
29-06-2019 36.5 (17:00) 15.5 (00:00) 26 8.33 (19:30) 4.72 (19:30) 0 0 0 0 0
28-06-2019 37.2 (16:00) 13.8 (00:00) 25.5 11.11 (16:20) 6.67 (16:30) 0 0 0 0 0
27-06-2019 32.6 (16:50) 14.4 (00:00) 23.5 10.28 (15:40) 5.28 (16:40) 0 0 0 0 0
26-06-2019 30.9 (17:20) 14.5 (00:00) 22.7 12.78 (16:00) 6.11 (16:30) 0 0 0 0 0
25-06-2019 29.6 (18:00) 10.8 (00:00) 20.2 11.11 (14:10) 4.72 (14:10) 0 0 0 0 0
24-06-2019 25.9 (14:20) 13.9 (00:00) 19.9 10 (15:30) 6.11 (15:30) 0 0 0 0 0
23-06-2019 27.4 (16:50) 10.7 (00:00) 19 12.5 (12:20) 6.11 (12:20) 0 0 0 0 0
22-06-2019 28.4 (14:20) 11.5 (00:00) 19.9 9.44 (19:00) 5 (18:40) 0 0 0 0 0
21-06-2019 23.7 (18:20) 9.1 (00:00) 16.4 7.78 (13:30) 4.44 (00:10) 0 0 0 0 0
20-06-2019 25.4 (17:30) 12.6 (00:00) 19 11.11 (18:30) 5.28 (18:00) 0 0 0 0 0
19-06-2019 22.9 (18:30) 12.5 (00:00) 17.7 10.56 (17:00) 5.56 (18:00) 0 0 0 0 0
18-06-2019 24.1 (15:30) 11.3 (00:00) 17.7 13.89 (16:40) 7.5 (17:10) 0 0 0 0 0
17-06-2019 28.1 (15:40) 7.7 (00:00) 17.9 10.83 (15:20) 5.83 (15:20) 0 0 0 0 0
16-06-2019 26.7 (16:30) 4.5 (00:00) 15.6 9.44 (17:00) 5 (18:10) 0 0 0 0 0

Gráficas

Temp. máximas Temp. mínimas Temp. medias Precipitaciones Rachas de viento máximas Velocidades máximas media en intervalos de 10 minutos

Datos horarios

Fecha y hora oficial Temperatura (ºC) Velocidad del viento (km/h) Dirección del viento Racha (km/h) Dirección de racha Precipitación (mm) Presión (hPa) Tendencia (hPa) Humedad (%)
2019-07-15 23:00:00 24.3 5 Nordeste 10 Nordeste 0 -- -- 33
2019-07-15 22:00:00 25.8 3 Norte 16 Nordeste 0 -- -- 27
2019-07-15 21:00:00 28.6 12 Norte 18 Norte 0 -- -- 24
2019-07-15 20:00:00 29.4 10 Norte 24 Norte 0 -- -- 22
2019-07-15 19:00:00 30.9 10 Norte 23 Norte 0 -- -- 21
2019-07-15 18:00:00 30.5 11 Norte 26 Norte 0 -- -- 21
2019-07-15 17:00:00 30.3 7 Nordeste 25 Norte 0 -- -- 24
2019-07-15 16:00:00 29.8 9 Norte 22 Norte 0 -- -- 27
2019-07-15 15:00:00 28.6 11 Norte 21 Norte 0 -- -- 31
2019-07-15 14:00:00 27.7 9 Noroeste 21 Norte 0 -- -- 36
2019-07-15 13:00:00 26.5 10 Norte 21 Norte 0 -- -- 38
2019-07-15 12:00:00 24.5 7 Norte 14 Norte 0 -- -- 47
2019-07-15 11:00:00 22.8 9 Norte 17 Norte 0 -- -- 52
2019-07-15 10:00:00 21.5 6 Noroeste 14 Noroeste 0 -- -- 62
2019-07-15 09:00:00 19.5 5 Oeste 12 Oeste 0 -- -- 71
2019-07-15 08:00:00 15.8 0 Calma 6 Oeste 0 -- -- 79
2019-07-15 07:00:00 16 2 Sur 8 Sur 0 -- -- 79
2019-07-15 06:00:00 17.8 5 Sudoeste 11 Sur 0 -- -- 74
2019-07-15 05:00:00 18.5 6 Sudoeste 10 Sudoeste 0 -- -- 70
2019-07-15 04:00:00 18 4 Sudoeste 12 Sudoeste 0 -- -- 67
2019-07-15 03:00:00 19 5 Sudoeste 12 Sudoeste 0 -- -- 60
2019-07-15 02:00:00 19.7 9 Sudoeste 22 Sudoeste 0 -- -- 53
2019-07-15 01:00:00 19.3 4 Sur 6 Sur 0 -- -- 53
2019-07-15 00:00:00 19.6 3 Sur 4 Sur 0 -- -- 53
2019-07-14 23:00:00 22.6 2 Sur 7 Nordeste 0 -- -- 45
2019-07-14 22:00:00 25.3 6 Nordeste 12 Norte 0 -- -- 41
2019-07-14 21:00:00 27.4 6 Nordeste 19 Norte 0 -- -- 37
2019-07-14 20:00:00 28.6 12 Norte 25 Norte 0 -- -- 33
2019-07-14 19:00:00 28.8 7 Norte 23 Norte 0 -- -- 32
2019-07-14 18:00:00 29.1 13 Norte 26 Norte 0 -- -- 30
2019-07-14 17:00:00 28.7 9 Norte 26 Nordeste 0 -- -- 33
2019-07-14 16:00:00 28.2 9 Norte 21 Norte 0 -- -- 33
2019-07-14 15:00:00 27.3 9 Nordeste 22 Norte 0 -- -- 37
2019-07-14 14:00:00 25.4 12 Norte 26 Norte 0 -- -- 46
2019-07-14 13:00:00 24.5 14 Norte 23 Noroeste 0 -- -- 51
2019-07-14 12:00:00 23.7 7 Norte 13 Norte 0 -- -- 49
2019-07-14 11:00:00 21.8 2 Nordeste 12 Sur 0 -- -- 59
2019-07-14 10:00:00 19.2 4 Sudoeste 8 Sudoeste 0 -- -- 68
2019-07-14 09:00:00 17.1 3 Sudoeste 8 Sur 0 -- -- 79
2019-07-14 08:00:00 15.1 2 Sudoeste 12 Sudoeste 0 -- -- 86
2019-07-14 07:00:00 14.5 5 Sudoeste 14 Sudoeste 0 -- -- 84
2019-07-14 06:00:00 15 7 Sudoeste 15 Sudoeste 0 -- -- 82
2019-07-14 05:00:00 14.7 12 Sudoeste 17 Sudoeste 0 -- -- 82
2019-07-14 04:00:00 15.2 6 Sudoeste 14 Sudoeste 0 -- -- 79
2019-07-14 03:00:00 15.3 0 Calma 11 Oeste 0 -- -- 77
2019-07-14 02:00:00 15.7 3 Sur 9 Sudoeste 0 -- -- 76
2019-07-14 01:00:00 17.6 6 Sudoeste 11 Sudoeste 0 -- -- 71
2019-07-14 00:00:00 18.2 3 Sudeste 11 Noroeste 0 -- -- 71
2019-07-13 23:00:00 19 7 Noroeste 32 Norte 0 -- -- 70
2019-07-13 22:00:00 20.4 23 Norte 41 Norte 0 -- -- 64
2019-07-13 21:00:00 25.3 12 Oeste 30 Noroeste 0 -- -- 37
2019-07-13 20:00:00 26.5 13 Oeste 35 Noroeste 0 -- -- 35
2019-07-13 19:00:00 27.3 15 Oeste 39 Oeste 0 -- -- 34
2019-07-13 18:00:00 29.6 14 Sudoeste 35 Sudoeste 0 -- -- 25
2019-07-13 17:00:00 31.4 16 Sudoeste 41 Sur 0 -- -- 20
2019-07-13 16:00:00 31.8 17 Sur 38 Sur 0 -- -- 20
2019-07-13 15:00:00 30.1 11 Oeste 39 Sudoeste 0 -- -- 34
2019-07-13 14:00:00 29.9 3 Sudeste 18 Norte 0 -- -- 31
2019-07-13 13:00:00 29 4 Nordeste 14 Noroeste 0 -- -- 33
2019-07-13 12:00:00 28.9 3 Sudeste 19 Sudoeste 0 -- -- 33
2019-07-13 11:00:00 26.7 15 Sudoeste 30 Oeste 0 -- -- 39
2019-07-13 10:00:00 25.2 17 Sudoeste 28 Oeste 0 -- -- 41
2019-07-13 09:00:00 22.2 10 Sudoeste 18 Sudoeste 0 -- -- 50
2019-07-13 08:00:00 20.8 0 Calma 12 Sudoeste 0 -- -- 49
2019-07-13 07:00:00 23.1 9 Sudoeste 27 Oeste 0 -- -- 42
2019-07-13 06:00:00 22.8 5 Sudoeste 14 Sudoeste 0 -- -- 37
2019-07-13 05:00:00 22.3 4 Sur 7 Sudeste 0 -- -- 39
2019-07-13 04:00:00 23.4 0 Calma 10 Norte 0 -- -- 38
2019-07-13 03:00:00 22.4 4 Sudeste 9 Sudeste 0 -- -- 42
2019-07-13 02:00:00 22.2 2 Sur 8 Sudeste 0 -- -- 43
2019-07-13 01:00:00 22.7 0 Calma 5 Sudoeste 0 -- -- 43
2019-07-13 00:00:00 25.3 3 Sur 9 Sur 0 -- -- 38
2019-07-12 23:00:00 27 4 Sur 15 Oeste 0 -- -- 35
2019-07-12 22:00:00 28.4 9 Oeste 33 Sudoeste 0 -- -- 32
2019-07-12 21:00:00 30.6 14 Sudoeste 30 Sudoeste 0 -- -- 29
2019-07-12 20:00:00 32.5 12 Sudoeste 23 Sudoeste 0 -- -- 23
2019-07-12 19:00:00 34 2 Sur 18 Sudoeste 0 -- -- 21
2019-07-12 18:00:00 35.1 4 Oeste 16 Oeste 0 -- -- 18
2019-07-12 17:00:00 35.6 6 Noroeste 22 Noroeste 0 -- -- 17
2019-07-12 16:00:00 36.5 7 Noroeste 21 Noroeste 0 -- -- 16
2019-07-12 15:00:00 36 10 Norte 19 Norte 0 -- -- 16
2019-07-12 14:00:00 35.1 5 Noroeste 18 Norte 0 -- -- 17
2019-07-12 13:00:00 33.6 7 Norte 13 Norte 0 -- -- 18
2019-07-12 12:00:00 32.3 5 Norte 13 Norte 0 -- -- 20
2019-07-12 11:00:00 30.8 7 Nordeste 12 Este 0 -- -- 21
2019-07-12 10:00:00 27.5 3 Nordeste 8 Nordeste 0 -- -- 25
2019-07-12 09:00:00 21.2 0 Calma 7 Sur 0 -- -- 41
2019-07-12 08:00:00 16.7 3 Sur 7 Sur 0 -- -- 49
2019-07-12 07:00:00 14.8 0 Calma 10 Norte 0 -- -- 53
2019-07-12 06:00:00 15.2 3 Sur 4 Sudoeste 0 -- -- 51
2019-07-12 05:00:00 16.1 0 Calma 8 Sur 0 -- -- 49
2019-07-12 04:00:00 16.4 3 Sudeste 6 Sur 0 -- -- 48
2019-07-12 03:00:00 17.1 5 Sur 9 Sur 0 -- -- 45
2019-07-12 02:00:00 19.4 4 Sur 7 Sur 0 -- -- 40
2019-07-12 01:00:00 20.5 4 Sur 8 Sur 0 -- -- 37
2019-07-12 00:00:00 21.8 5 Sur 10 Sur 0 -- -- 35
2019-07-11 23:00:00 23.8 3 Sur 8 Sudeste 0 -- -- 32
2019-07-11 22:00:00 28.7 0 Calma 7 Norte 0 -- -- 24
2019-07-11 21:00:00 31.5 5 Norte 18 Norte 0 -- -- 21
2019-07-11 20:00:00 33.3 10 Norte 22 Norte 0 -- -- 19
2019-07-11 19:00:00 34.3 12 Norte 22 Norte 0 -- -- 18
2019-07-11 18:00:00 34.1 9 Norte 22 Norte 0 -- -- 18
2019-07-11 17:00:00 34 9 Norte 20 Norte 0 -- -- 18
2019-07-11 16:00:00 33.5 6 Noroeste 23 Norte 0 -- -- 19
2019-07-11 15:00:00 32.4 4 Norte 24 Norte 0 -- -- 20
2019-07-11 14:00:00 31.8 9 Norte 21 Noroeste 0 -- -- 21
2019-07-11 13:00:00 31 6 Noroeste 17 Norte 0 -- -- 24
2019-07-11 12:00:00 29.7 7 Nordeste 16 Este 0 -- -- 25
2019-07-11 11:00:00 27.7 7 Nordeste 12 Nordeste 0 -- -- 29
2019-07-11 10:00:00 23.8 2 Nordeste 8 Norte 0 -- -- 36
2019-07-11 09:00:00 19.2 2 Sudeste 8 Sur 0 -- -- 46
2019-07-11 08:00:00 13.7 2 Sur 11 Norte 0 -- -- 60
2019-07-11 07:00:00 12.1 3 Sur 5 Sur 0 -- -- 64
2019-07-11 06:00:00 12.7 3 Sur 7 Sur 0 -- -- 60
2019-07-11 05:00:00 13 4 Sur 5 Sur 0 -- -- 59
2019-07-11 04:00:00 13.7 3 Sur 6 Sudeste 0 -- -- 55
2019-07-11 03:00:00 14.9 2 Sur 4 Sur 0 -- -- 51
2019-07-11 02:00:00 15.5 3 Sur 7 Sur 0 -- -- 50
2019-07-11 01:00:00 16.5 3 Sur 5 Sur 0 -- -- 45
2019-07-11 00:00:00 17.7 2 Sur 7 Sur 0 -- -- 43
2019-07-10 23:00:00 20.8 2 Sur 8 Norte 0 -- -- 36
2019-07-10 22:00:00 25.3 6 Noroeste 21 Norte 0 -- -- 29
2019-07-10 21:00:00 28 11 Norte 23 Norte 0 -- -- 26
2019-07-10 20:00:00 29.4 13 Norte 25 Norte 0 -- -- 25
2019-07-10 19:00:00 29.8 11 Norte 24 Norte 0 -- -- 24
2019-07-10 18:00:00 29.4 13 Nordeste 23 Nordeste 0 -- -- 24
2019-07-10 17:00:00 29 11 Norte 28 Este 0 -- -- 24
2019-07-10 16:00:00 28 10 Norte 22 Norte 0 -- -- 23
2019-07-10 15:00:00 27.1 13 Norte 23 Norte 0 -- -- 25
2019-07-10 14:00:00 25.3 11 Nordeste 19 Nordeste 0 -- -- 27
2019-07-10 13:00:00 24.3 7 Nordeste 19 Norte 0 -- -- 24
2019-07-10 12:00:00 22.5 9 Nordeste 19 Norte 0 -- -- 24
2019-07-10 11:00:00 20.3 9 Norte 18 Norte 0 -- -- 34
2019-07-10 10:00:00 18.5 6 Nordeste 14 Nordeste 0 -- -- 38
2019-07-10 09:00:00 14.6 3 Norte 6 Norte 0 -- -- 63
2019-07-10 08:00:00 10.3 0 Calma 2 Sur 0 -- -- 81
2019-07-10 07:00:00 10 0 Calma 4 Nordeste 0 -- -- 81
2019-07-10 06:00:00 12.6 3 Nordeste 9 Nordeste 0 -- -- 74
2019-07-10 05:00:00 13.4 6 Nordeste 11 Nordeste 0 -- -- 75
2019-07-10 04:00:00 13.7 5 Norte 8 Nordeste 0 -- -- 73
2019-07-10 03:00:00 14 0 Calma 5 Norte 0 -- -- 69
2019-07-10 02:00:00 14.8 3 Norte 5 Nordeste 0 -- -- 64
2019-07-10 01:00:00 15 2 Nordeste 6 Norte 0 -- -- 62
2019-07-10 00:00:00 17 0 Calma 5 Sudeste 0 -- -- 53
2019-07-09 23:00:00 19.5 4 Sudeste 14 Nordeste 0 -- -- 47
2019-07-09 22:00:00 21.9 9 Nordeste 22 Nordeste 0 -- -- 41
2019-07-09 21:00:00 23.6 12 Nordeste 26 Este 0 -- -- 37
2019-07-09 20:00:00 24.2 17 Nordeste 35 Nordeste 0 -- -- 38
2019-07-09 19:00:00 24.1 18 Nordeste 30 Nordeste 0 -- -- 39
2019-07-09 18:00:00 24 16 Nordeste 32 Nordeste 0 -- -- 40
2019-07-09 17:00:00 23.4 13 Nordeste 26 Nordeste 0 -- -- 42
2019-07-09 16:00:00 22.6 11 Nordeste 27 Nordeste 0 -- -- 46
2019-07-09 15:00:00 23.3 12 Nordeste 25 Nordeste 0 -- -- 44
2019-07-09 14:00:00 22 12 Nordeste 23 Nordeste 0 -- -- 50
2019-07-09 13:00:00 20.5 12 Nordeste 23 Este 0 -- -- 60
2019-07-09 12:00:00 17.7 9 Nordeste 15 Nordeste 0 -- -- 71
2019-07-09 11:00:00 16.1 5 Norte 11 Norte 0 -- -- 75
2019-07-09 10:00:00 15.9 5 Norte 9 Norte 0 -- -- 72
2019-07-09 09:00:00 13.3 0 Calma 7 Sur 0 -- -- 84
2019-07-09 08:00:00 9.6 3 Sur 9 Sur 0 -- -- 93
2019-07-09 07:00:00 7.5 4 Sur 6 Sudeste 0 -- -- 92
2019-07-09 06:00:00 8.4 2 Sudoeste 5 Sur 0 -- -- 91
2019-07-09 05:00:00 8.5 4 Sur 6 Sur 0 -- -- 87
2019-07-09 04:00:00 9.5 3 Sur 8 Sudoeste 0 -- -- 86
2019-07-09 03:00:00 9.8 3 Sur 6 Sur 0 -- -- 85
2019-07-09 02:00:00 9.9 2 Sur 6 Sur 0 -- -- 82
2019-07-09 01:00:00 11.8 2 Sudoeste 5 Sudoeste 0 -- -- 76
2019-07-09 00:00:00 13.4 2 Sudeste 8 Sudeste 0 -- -- 73
2019-07-08 23:00:00 14.4 4 Sur 6 Noroeste 0 -- -- 68
2019-07-08 22:00:00 15.9 4 Oeste 15 Sudoeste 0 -- -- 62
2019-07-08 21:00:00 16.8 6 Oeste 34 Noroeste 0 -- -- 57
2019-07-08 20:00:00 19.3 9 Sudoeste 25 Oeste 0 -- -- 44
2019-07-08 19:00:00 20.1 18 Sudoeste 33 Sur 0 -- -- 43
2019-07-08 18:00:00 21.2 16 Sur 36 Sur 0 -- -- 49
2019-07-08 17:00:00 19.2 8 Sur 20 Oeste 0.6 -- -- 55
2019-07-08 16:00:00 20.9 13 Oeste 27 Oeste 0 -- -- 49
2019-07-08 15:00:00 21.5 6 Nordeste 16 Norte 0 -- -- 55
2019-07-08 14:00:00 22.7 9 Norte 20 Norte 0 -- -- 52
2019-07-08 13:00:00 23.6 9 Oeste 25 Oeste 0 -- -- 37
2019-07-08 12:00:00 23.9 10 Noroeste 24 Noroeste 0 -- -- 42
2019-07-08 11:00:00 22.6 7 Oeste 21 Oeste 0 -- -- 46
2019-07-08 10:00:00 20 6 Sudoeste 14 Sudoeste 0 -- -- 57
2019-07-08 09:00:00 16.7 7 Sudoeste 12 Sudoeste 0 -- -- 73
2019-07-08 08:00:00 12.7 0 Calma 6 Norte 0 -- -- 86
2019-07-08 07:00:00 12.4 4 Sudeste 7 Sudoeste 0 -- -- 85
2019-07-08 06:00:00 13.3 4 Sur 10 Sudoeste 0 -- -- 84
2019-07-08 05:00:00 13.5 3 Sudeste 9 Sur 0 -- -- 82
2019-07-08 04:00:00 15.1 4 Sudoeste 13 Sudoeste 0 -- -- 78
2019-07-08 03:00:00 15.7 3 Sudoeste 13 Sudoeste 0 -- -- 71
2019-07-08 02:00:00 16.3 4 Sur 10 Sudoeste 0 -- -- 62
2019-07-08 01:00:00 17.7 5 Sudoeste 13 Sudoeste 0 -- -- 51
2019-07-08 00:00:00 18.6 4 Sudoeste 12 Sudoeste 0 -- -- 44
2019-07-07 23:00:00 21.9 6 Sudoeste 18 Sudoeste 0 -- -- 36
2019-07-07 22:00:00 24.1 6 Oeste 20 Sudoeste 0 -- -- 32
2019-07-07 21:00:00 26.1 8 Oeste 22 Oeste 0 -- -- 29
2019-07-07 20:00:00 27.5 12 Oeste 26 Noroeste 0 -- -- 25
2019-07-07 19:00:00 28.5 13 Oeste 30 Oeste 0 -- -- 23
2019-07-07 18:00:00 28.7 13 Oeste 29 Oeste 0 -- -- 22
2019-07-07 17:00:00 28.7 13 Noroeste 26 Noroeste 0 -- -- 25
2019-07-07 16:00:00 28.6 10 Noroeste 25 Oeste 0 -- -- 23
2019-07-07 15:00:00 28.4 8 Noroeste 26 Noroeste 0 -- -- 20
2019-07-07 14:00:00 27.2 8 Este 23 Noroeste 0 -- -- 22
2019-07-07 13:00:00 26 9 Norte 19 Nordeste 0 -- -- 25
2019-07-07 12:00:00 24.7 6 Este 13 Noroeste 0 -- -- 30
2019-07-07 11:00:00 21.9 3 Nordeste 10 Norte 0 -- -- 44
2019-07-07 10:00:00 19.4 3 Nordeste 6 Nordeste 0 -- -- 60
2019-07-07 09:00:00 15.7 3 Nordeste 5 Nordeste 0 -- -- 73
2019-07-07 08:00:00 11.8 2 Norte 8 Sur 0 -- -- 84
2019-07-07 07:00:00 11.7 5 Sur 8 Sur 0 -- -- 85
2019-07-07 06:00:00 12.1 2 Sur 9 Sudeste 0 -- -- 77
2019-07-07 05:00:00 12.8 4 Sur 9 Sudeste 0 -- -- 72
2019-07-07 04:00:00 14 3 Sudoeste 6 Sur 0 -- -- 66
2019-07-07 03:00:00 14.9 5 Sur 9 Sudoeste 0 -- -- 57
2019-07-07 02:00:00 17.5 5 Sudoeste 13 Sudoeste 0 -- -- 48
2019-07-07 01:00:00 15.9 5 Sudoeste 12 Sur 0 -- -- 49
2019-07-07 00:00:00 17.3 5 Sur 12 Sudoeste 0 -- -- 46
2019-07-06 23:00:00 19.5 4 Sudoeste 9 Oeste 0 -- -- 40
2019-07-06 22:00:00 23.7 4 Oeste 22 Sudoeste 0 -- -- 32
2019-07-06 21:00:00 25.7 12 Oeste 27 Sudoeste 0 -- -- 29
2019-07-06 20:00:00 27.1 17 Sudoeste 31 Oeste 0 -- -- 27
2019-07-06 19:00:00 27.8 14 Oeste 39 Oeste 0 -- -- 26
2019-07-06 18:00:00 27.9 17 Oeste 40 Sudoeste 0 -- -- 26
2019-07-06 17:00:00 28.4 17 Oeste 32 Oeste 0 -- -- 26
2019-07-06 16:00:00 28.7 14 Sudoeste 39 Sudoeste 0 -- -- 25
2019-07-06 15:00:00 28.6 15 Sudoeste 32 Sudoeste 0 -- -- 25
2019-07-06 14:00:00 27.9 14 Oeste 27 Sudoeste 0 -- -- 26
2019-07-06 13:00:00 26.8 8 Noroeste 19 Oeste 0 -- -- 28
2019-07-06 12:00:00 25.3 7 Noroeste 20 Sudoeste 0 -- -- 34
2019-07-06 11:00:00 23.3 5 Norte 12 Noroeste 0 -- -- 39
2019-07-06 10:00:00 20.8 4 Nordeste 8 Nordeste 0 -- -- 50
2019-07-06 09:00:00 17.1 4 Norte 6 Norte 0 -- -- 60
2019-07-06 08:00:00 12.2 2 Sur 5 Sur 0 -- -- 70
2019-07-06 07:00:00 10.7 3 Sur 7 Sur 0 -- -- 71
2019-07-06 06:00:00 11.8 0 Calma 4 Sur 0 -- -- 68
2019-07-06 05:00:00 12.7 3 Sur 8 Sudeste 0 -- -- 63
2019-07-06 04:00:00 13.3 3 Sur 6 Sudeste 0 -- -- 59
2019-07-06 03:00:00 14.4 3 Sur 5 Sudoeste 0 -- -- 54
2019-07-06 02:00:00 15.6 2 Sudeste 9 Sudeste 0 -- -- 50
2019-07-06 01:00:00 16.1 5 Sur 7 Sudeste 0 -- -- 49
2019-07-06 00:00:00 19.7 4 Sudoeste 12 Sudoeste 0 -- -- 41
2019-07-05 23:00:00 21.5 9 Sudoeste 18 Sudoeste 0 -- -- 38
2019-07-05 22:00:00 23.9 10 Sudoeste 25 Sudoeste 0 -- -- 34
2019-07-05 21:00:00 26.1 15 Sudoeste 33 Sudoeste 0 -- -- 29
2019-07-05 20:00:00 27.8 17 Sudoeste 31 Sudoeste 0 -- -- 25
2019-07-05 19:00:00 28.3 11 Oeste 37 Oeste 0 -- -- 27
2019-07-05 18:00:00 28.4 15 Oeste 39 Sudoeste 0 -- -- 26
2019-07-05 17:00:00 29 20 Sudoeste 37 Sudoeste 0 -- -- 24
2019-07-05 16:00:00 28.9 14 Oeste 30 Oeste 0 -- -- 25
2019-07-05 15:00:00 28.5 15 Oeste 31 Sudoeste 0 -- -- 26
2019-07-05 14:00:00 28.7 12 Sudoeste 31 Sudoeste 0 -- -- 19
2019-07-05 13:00:00 27.9 11 Sudoeste 24 Sudoeste 0 -- -- 20
2019-07-05 12:00:00 26.1 6 Sur 21 Sudoeste 0 -- -- 23
2019-07-05 11:00:00 24.6 6 Sudoeste 17 Sudoeste 0 -- -- 28
2019-07-05 10:00:00 21.8 7 Oeste 14 Oeste 0 -- -- 43
2019-07-05 09:00:00 19.3 7 Oeste 12 Oeste 0 -- -- 49
2019-07-05 08:00:00 15.7 4 Sur 9 Sudoeste 0 -- -- 58
2019-07-05 07:00:00 12.6 0 Calma 10 Sur 0 -- -- 70
2019-07-05 06:00:00 12.6 4 Sur 6 Sudoeste 0 -- -- 71
2019-07-05 05:00:00 14.3 3 Sur 6 Sur 0 -- -- 66
2019-07-05 04:00:00 15.1 4 Sur 8 Sur 0 -- -- 64
2019-07-05 03:00:00 16.3 6 Sur 9 Sur 0 -- -- 61
2019-07-05 02:00:00 18.1 3 Sur 8 Sudoeste 0 -- -- 56
2019-07-05 01:00:00 20.1 3 Sur 9 Sudoeste 0 -- -- 50
2019-07-05 00:00:00 21.6 6 Sudoeste 11 Oeste 0 -- -- 46
2019-07-04 23:00:00 22.7 4 Oeste 18 Oeste 0 -- -- 45
2019-07-04 22:00:00 24.5 8 Oeste 17 Oeste 0 -- -- 42
2019-07-04 21:00:00 26.2 9 Sudoeste 20 Sudoeste 0 -- -- 33
2019-07-04 20:00:00 27.2 8 Sudeste 21 Sur 0 -- -- 31
2019-07-04 19:00:00 27.9 10 Sur 34 Sudeste 0 -- -- 31
2019-07-04 18:00:00 28.2 11 Sur 30 Sur 0 -- -- 29
2019-07-04 17:00:00 28.3 15 Sur 37 Sudeste 0 -- -- 26
2019-07-04 16:00:00 28.7 12 Sudeste 31 Este 0 -- -- 31
2019-07-04 15:00:00 27.7 17 Sudeste 34 Sur 0 -- -- 33
2019-07-04 14:00:00 28.7 15 Sur 34 Sur 0 -- -- 30
2019-07-04 13:00:00 27 12 Oeste 26 Oeste 0 -- -- 34
2019-07-04 12:00:00 26.1 11 Sudeste 24 Sudeste 0 -- -- 34
2019-07-04 11:00:00 23.5 6 Sudeste 14 Sudeste 0 -- -- 40
2019-07-04 10:00:00 18.7 5 Norte 13 Sudoeste 0 -- -- 53
2019-07-04 09:00:00 17 9 Sudoeste 15 Sudoeste 0 -- -- 56
2019-07-04 08:00:00 13.3 4 Sur 6 Sur 0 -- -- 70
2019-07-04 07:00:00 14 4 Noroeste 9 Noroeste 0 -- -- 68
2019-07-04 06:00:00 14 4 Sur 9 Sur 0 -- -- 68
2019-07-04 05:00:00 14.9 3 Sur 7 Norte 0 -- -- 65
2019-07-04 04:00:00 16.8 5 Sudoeste 8 Sudoeste 0 -- -- 59
2019-07-04 03:00:00 16.6 5 Sudoeste 9 Sudoeste 0 -- -- 64
2019-07-04 02:00:00 17 2 Sur 5 Sur 0 -- -- 66
2019-07-04 01:00:00 19.1 4 Sur 5 Sur 0 -- -- 60
2019-07-04 00:00:00 21.9 0 Calma 13 Norte 0 -- -- 54
2019-07-03 23:00:00 23.3 6 Noroeste 12 Sudoeste 0 -- -- 42
2019-07-03 22:00:00 25.6 6 Sudoeste 23 Oeste 0 -- -- 37
2019-07-03 21:00:00 27.7 16 Oeste 25 Noroeste 0 -- -- 32
2019-07-03 20:00:00 29.9 13 Oeste 27 Oeste 0 -- -- 28
2019-07-03 19:00:00 30.4 13 Oeste 27 Sudoeste 0 -- -- 27
2019-07-03 18:00:00 30.7 11 Sur 30 Sur 0 -- -- 21
2019-07-03 17:00:00 31.6 13 Sudeste 28 Sudeste 0 -- -- 23
2019-07-03 16:00:00 31.9 12 Sudoeste 32 Sudoeste 0 -- -- 22
2019-07-03 15:00:00 30.7 8 Sur 35 Sudeste 0 -- -- 26
2019-07-03 14:00:00 30.5 6 Sudoeste 19 Oeste 0 -- -- 26
2019-07-03 13:00:00 28.6 9 Noroeste 18 Oeste 0 -- -- 27
2019-07-03 12:00:00 28.6 6 Nordeste 16 Oeste 0 -- -- 29
2019-07-03 11:00:00 27 9 Norte 16 Norte 0 -- -- 31
2019-07-03 10:00:00 25 3 Noroeste 8 Norte 0 -- -- 32
2019-07-03 09:00:00 19.1 2 Nordeste 5 Nordeste 0 -- -- 39
2019-07-03 08:00:00 14.8 0 Calma 8 Sur 0 -- -- 49
2019-07-03 07:00:00 13.7 0 Calma 7 Sur 0 -- -- 49
2019-07-03 06:00:00 14.6 5 Sur 10 Sudoeste 0 -- -- 44
2019-07-03 05:00:00 15.1 4 Sudeste 11 Sur 0 -- -- 43
2019-07-03 04:00:00 15.1 6 Sur 10 Norte 0 -- -- 44
2019-07-03 03:00:00 16.5 5 Sur 8 Sur 0 -- -- 42
2019-07-03 02:00:00 17 5 Sur 9 Sudeste 0 -- -- 43
2019-07-03 01:00:00 18 4 Sur 8 Norte 0 -- -- 41
2019-07-03 00:00:00 20.1 4 Sur 12 Sur 0 -- -- 37
2019-07-02 23:00:00 21.4 3 Sudoeste 8 Sudoeste 0 -- -- 35
2019-07-02 22:00:00 25.7 5 Oeste 24 Oeste 0 -- -- 28
2019-07-02 21:00:00 27.9 12 Oeste 25 Oeste 0 -- -- 26
2019-07-02 20:00:00 29.4 16 Oeste 33 Oeste 0 -- -- 24
2019-07-02 19:00:00 30.7 18 Sudoeste 33 Oeste 0 -- -- 21
2019-07-02 18:00:00 30.9 14 Oeste 32 Oeste 0 -- -- 21
2019-07-02 17:00:00 31.5 15 Oeste 30 Oeste 0 -- -- 23
2019-07-02 16:00:00 31.1 14 Oeste 42 Oeste 0 -- -- 22
2019-07-02 15:00:00 30.9 8 Norte 23 Sudoeste 0 -- -- 20
2019-07-02 14:00:00 29.5 8 Norte 21 Noroeste 0 -- -- 20
2019-07-02 13:00:00 28.2 7 Noroeste 16 Norte 0 -- -- 26
2019-07-02 12:00:00 25.4 8 Noroeste 15 Norte 0 -- -- 40
2019-07-02 11:00:00 22.4 7 Norte 14 Norte 0 -- -- 51
2019-07-02 10:00:00 19.4 3 Norte 8 Norte 0 -- -- 61
2019-07-02 09:00:00 15.8 4 Nordeste 6 Nordeste 0 -- -- 75
2019-07-02 08:00:00 12.6 2 Nordeste 5 Nordeste 0 -- -- 84
2019-07-02 07:00:00 12 2 Nordeste 5 Norte 0 -- -- 81
2019-07-02 06:00:00 12.7 0 Calma 5 Nordeste 0 -- -- 65
2019-07-02 05:00:00 12.9 0 Calma 3 Nordeste 0 -- -- 60
2019-07-02 04:00:00 14.1 0 Calma 6 Sudoeste 0 -- -- 58
2019-07-02 03:00:00 15.3 2 Sur 8 Sur 0 -- -- 50
2019-07-02 02:00:00 16.6 4 Sudeste 8 Sudoeste 0 -- -- 51
2019-07-02 01:00:00 17.4 3 Sur 6 Sur 0 -- -- 51
2019-07-02 00:00:00 20.9 3 Noroeste 9 Norte 0 -- -- 49
2019-07-01 23:00:00 22.8 4 Norte 20 Norte 0 -- -- 45
2019-07-01 22:00:00 26 4 Noroeste 17 Sudoeste 0 -- -- 22
2019-07-01 21:00:00 28.8 10 Sudoeste 23 Sudoeste 0 -- -- 19
2019-07-01 20:00:00 29.9 12 Oeste 28 Oeste 0 -- -- 19
2019-07-01 19:00:00 31 10 Oeste 30 Oeste 0 -- -- 20
2019-07-01 18:00:00 30.9 15 Oeste 32 Sudoeste 0 -- -- 19
2019-07-01 17:00:00 31.3 13 Oeste 32 Oeste 0 -- -- 21
2019-07-01 16:00:00 30.6 11 Oeste 23 Oeste 0 -- -- 29
2019-07-01 15:00:00 29.1 10 Oeste 24 Oeste 0 -- -- 31
2019-07-01 14:00:00 27.7 9 Noroeste 18 Oeste 0 -- -- 40
2019-07-01 13:00:00 25.5 10 Noroeste 21 Norte 0 -- -- 54
2019-07-01 12:00:00 23.9 8 Norte 17 Norte 0 -- -- 59
2019-07-01 11:00:00 22.3 6 Noroeste 16 Norte 0 -- -- 63
2019-07-01 10:00:00 19.8 5 Norte 15 Norte 0 -- -- 71
2019-07-01 09:00:00 17.7 7 Norte 13 Nordeste 0 -- -- 79
2019-07-01 08:00:00 15 0 Calma 4 Sur 0 -- -- 81
2019-07-01 07:00:00 14.3 3 Sudoeste 6 Sur 0 -- -- 84
2019-07-01 06:00:00 15.1 0 Calma 3 Sudoeste 0 -- -- 79
2019-07-01 05:00:00 16 0 Calma 3 Sur 0 -- -- 77
2019-07-01 04:00:00 16.8 3 Sur 6 Sur 0 -- -- 73
2019-07-01 03:00:00 17.5 3 Sudeste 7 Sur 0 -- -- 69
2019-07-01 02:00:00 19.1 3 Sudeste 8 Sudoeste 0 -- -- 64
2019-07-01 01:00:00 21.9 4 Sudoeste 12 Oeste 0 -- -- 55
2019-07-01 00:00:00 23.1 0 Calma 14 Oeste 0 -- -- 42
2019-06-30 23:00:00 25.5 7 Sudoeste 20 Sudoeste 0 -- -- 36
2019-06-30 22:00:00 27.8 13 Sudoeste 27 Sudoeste 0 -- -- 32
2019-06-30 21:00:00 30.1 15 Sudoeste 27 Sudoeste 0 -- -- 29
2019-06-30 20:00:00 32 14 Sudoeste 35 Oeste 0 -- -- 23
2019-06-30 19:00:00 32.7 15 Sudoeste 34 Oeste 0 -- -- 23
2019-06-30 18:00:00 33 19 Sudoeste 33 Sudoeste 0 -- -- 22
2019-06-30 17:00:00 33.4 16 Sudoeste 36 Sudoeste 0 -- -- 23
2019-06-30 16:00:00 33.5 16 Oeste 37 Sudoeste 0 -- -- 25
2019-06-30 15:00:00 33.5 12 Oeste 29 Oeste 0 -- -- 24
2019-06-30 14:00:00 32 15 Sudoeste 32 Oeste 0 -- -- 30
2019-06-30 13:00:00 30.5 12 Oeste 33 Oeste 0 -- -- 33
2019-06-30 12:00:00 29.7 11 Sudoeste 23 Sudoeste 0 -- -- 34
2019-06-30 11:00:00 27.3 10 Oeste 19 Oeste 0 -- -- 46
2019-06-30 10:00:00 25 4 Noroeste 12 Oeste 0 -- -- 53
2019-06-30 09:00:00 22.1 2 Sudeste 6 Sudeste 0 -- -- 59
2019-06-30 08:00:00 17.2 3 Sur 6 Sudeste 0 -- -- 74
2019-06-30 07:00:00 16.1 4 Sur 8 Sur 0 -- -- 76
2019-06-30 06:00:00 17 0 Calma 6 Sur 0 -- -- 70
2019-06-30 05:00:00 17.7 4 Sur 6 Sudoeste 0 -- -- 68
2019-06-30 04:00:00 18.2 4 Sur 8 Sudeste 0 -- -- 64
2019-06-30 03:00:00 19.8 2 Sudoeste 6 Sur 0 -- -- 56
2019-06-30 02:00:00 20.4 4 Sur 7 Sudeste 0 -- -- 51
2019-06-30 01:00:00 21.7 4 Sur 7 Sur 0 -- -- 45
2019-06-30 00:00:00 23.8 4 Sur 12 Norte 0 -- -- 38
2019-06-29 23:00:00 26.3 4 Sudoeste 8 Sudoeste 0 -- -- 32
2019-06-29 22:00:00 30.5 6 Sudoeste 17 Sudoeste 0 -- -- 25
2019-06-29 21:00:00 32.4 9 Sudoeste 23 Oeste 0 -- -- 24
2019-06-29 20:00:00 34.6 13 Oeste 30 Oeste 0 -- -- 21
2019-06-29 19:00:00 36.1 9 Oeste 26 Oeste 0 -- -- 21
2019-06-29 18:00:00 36.2 11 Oeste 26 Oeste 0 -- -- 21
2019-06-29 17:00:00 36.5 9 Noroeste 19 Noroeste 0 -- -- 20
2019-06-29 16:00:00 35.4 10 Oeste 20 Norte 0 -- -- 22
2019-06-29 15:00:00 35.1 6 Norte 17 Norte 0 -- -- 22
2019-06-29 14:00:00 33.8 6 Sudoeste 16 Noroeste 0 -- -- 25
2019-06-29 13:00:00 32.4 9 Noroeste 21 Norte 0 -- -- 29
2019-06-29 12:00:00 31.1 7 Norte 17 Norte 0 -- -- 30
2019-06-29 11:00:00 28.4 3 Norte 6 Norte 0 -- -- 40
2019-06-29 10:00:00 24.8 3 Nordeste 9 Este 0 -- -- 55
2019-06-29 09:00:00 21.1 3 Nordeste 6 Sur 0 -- -- 61
2019-06-29 08:00:00 16.2 2 Sudeste 7 Sur 0 -- -- 73
2019-06-29 07:00:00 15.5 3 Sur 9 Sudoeste 0 -- -- 72
2019-06-29 06:00:00 17.1 3 Sudoeste 11 Sudoeste 0 -- -- 64
2019-06-29 05:00:00 18.1 6 Sudoeste 11 Sudoeste 0 -- -- 65
2019-06-29 04:00:00 18.2 4 Sur 8 Sur 0 -- -- 54
2019-06-29 03:00:00 19.7 3 Sudoeste 9 Oeste 0 -- -- 46
2019-06-29 02:00:00 21.4 5 Sur 9 Sudeste 0 -- -- 41
2019-06-29 01:00:00 23.5 5 Sur 9 Sur 0 -- -- 36
2019-06-29 00:00:00 25.3 5 Sur 12 Sudeste 0 -- -- 34
2019-06-28 23:00:00 26.6 4 Sur 8 Sur 0 -- -- 31
2019-06-28 22:00:00 31 4 Sudoeste 18 Sudoeste 0 -- -- 25
2019-06-28 21:00:00 35.5 9 Sur 27 Sudeste 0 -- -- 13
2019-06-28 20:00:00 36.5 15 Sudeste 32 Sur 0 -- -- 14
2019-06-28 19:00:00 36.6 18 Sudeste 38 Sudeste 0 -- -- 15
2019-06-28 18:00:00 36.6 19 Sudeste 40 Sudeste 0 -- -- 16
2019-06-28 17:00:00 36.7 21 Sudeste 40 Sudeste 0 -- -- 14
2019-06-28 16:00:00 37.2 18 Sur 38 Sur 0 -- -- 13
2019-06-28 15:00:00 36.9 17 Sudeste 35 Oeste 0 -- -- 13
2019-06-28 14:00:00 35.6 12 Sudoeste 34 Sudeste 0 -- -- 22
2019-06-28 13:00:00 32.5 14 Noroeste 24 Noroeste 0 -- -- 28
2019-06-28 12:00:00 29.4 8 Nordeste 19 Nordeste 0 -- -- 36
2019-06-28 11:00:00 25.8 8 Norte 16 Norte 0 -- -- 48
2019-06-28 10:00:00 21.7 9 Nordeste 16 Nordeste 0 -- -- 62
2019-06-28 09:00:00 18.4 4 Nordeste 8 Norte 0 -- -- 71
2019-06-28 08:00:00 14.6 0 Calma 4 Sur 0 -- -- 81
2019-06-28 07:00:00 13.8 4 Sur 6 Sudeste 0 -- -- 84
2019-06-28 06:00:00 14.6 2 Sur 6 Sudeste 0 -- -- 80
2019-06-28 05:00:00 15.5 3 Sur 5 Sur 0 -- -- 77
2019-06-28 04:00:00 16.3 0 Calma 5 Sur 0 -- -- 75
2019-06-28 03:00:00 16.9 3 Sudoeste 8 Oeste 0 -- -- 74
2019-06-28 02:00:00 17.4 3 Sur 5 Sudoeste 0 -- -- 68
2019-06-28 01:00:00 19.2 2 Sur 5 Nordeste 0 -- -- 64
2019-06-28 00:00:00 20.2 0 Calma 9 Norte 0 -- -- 60
2019-06-27 23:00:00 23 3 Sur 13 Sudoeste 0 -- -- 53
2019-06-27 22:00:00 25.8 6 Oeste 22 Oeste 0 -- -- 47
2019-06-27 21:00:00 27.8 12 Oeste 29 Oeste 0 -- -- 42
2019-06-27 20:00:00 29.9 14 Oeste 30 Noroeste 0 -- -- 37
2019-06-27 19:00:00 31.2 15 Noroeste 34 Noroeste 0 -- -- 32
2019-06-27 18:00:00 31.5 17 Oeste 31 Oeste 0 -- -- 32
2019-06-27 17:00:00 32.5 17 Sudoeste 32 Oeste 0 -- -- 30
2019-06-27 16:00:00 31.4 12 Sudoeste 37 Oeste 0 -- -- 33
2019-06-27 15:00:00 30.9 18 Oeste 32 Sudoeste 0 -- -- 34
2019-06-27 14:00:00 29.9 15 Oeste 27 Sudoeste 0 -- -- 34
2019-06-27 13:00:00 29.7 12 Oeste 24 Oeste 0 -- -- 33
2019-06-27 12:00:00 28.7 4 Nordeste 21 Norte 0 -- -- 35
2019-06-27 11:00:00 25.8 5 Oeste 12 Sudoeste 0 -- -- 41
2019-06-27 10:00:00 23.5 5 Sudoeste 17 Oeste 0 -- -- 46
2019-06-27 09:00:00 20.9 6 Oeste 13 Oeste 0 -- -- 51
2019-06-27 08:00:00 16.4 3 Sur 10 Sudeste 0 -- -- 67
2019-06-27 07:00:00 14.4 5 Sur 12 Sudeste 0 -- -- 73
2019-06-27 06:00:00 15.2 5 Sur 10 Sur 0 -- -- 70
2019-06-27 05:00:00 15.4 4 Sur 8 Sur 0 -- -- 69
2019-06-27 04:00:00 15.3 4 Sur 6 Sur 0 -- -- 68
2019-06-27 03:00:00 17.2 0 Calma 6 Sur 0 -- -- 61
2019-06-27 02:00:00 17.7 4 Sur 9 Sur 0 -- -- 60
2019-06-27 01:00:00 19.7 4 Sudoeste 8 Nordeste 0 -- -- 54
2019-06-27 00:00:00 20.7 3 Sudeste 10 Sur 0 -- -- 50
2019-06-26 23:00:00 23.2 6 Sudoeste 11 Sudoeste 0 -- -- 44
2019-06-26 22:00:00 26.3 8 Sudoeste 18 Sudoeste 0 -- -- 37
2019-06-26 21:00:00 28.6 9 Sudoeste 25 Sur 0 -- -- 33
2019-06-26 20:00:00 29.9 12 Sudoeste 29 Sudoeste 0 -- -- 30
2019-06-26 19:00:00 30.6 13 Sur 30 Sudoeste 0 -- -- 29
2019-06-26 18:00:00 30.9 17 Sudoeste 36 Sudoeste 0 -- -- 28
2019-06-26 17:00:00 30.7 17 Sudoeste 36 Sur 0 -- -- 29
2019-06-26 16:00:00 30.2 21 Sudoeste 46 Sudoeste 0 -- -- 29
2019-06-26 15:00:00 29.2 17 Sudoeste 38 Oeste 0 -- -- 32
2019-06-26 14:00:00 29 15 Sudoeste 34 Sudoeste 0 -- -- 31
2019-06-26 13:00:00 28.7 13 Sudoeste 34 Sur 0 -- -- 30
2019-06-26 12:00:00 27.4 15 Sur 30 Sur 0 -- -- 33
2019-06-26 11:00:00 25.5 10 Sur 33 Sur 0 -- -- 38
2019-06-26 10:00:00 23.9 8 Sudoeste 18 Sur 0 -- -- 41
2019-06-26 09:00:00 21.5 4 Noroeste 11 Noroeste 0 -- -- 51
2019-06-26 08:00:00 16.3 2 Sur 7 Sur 0 -- -- 70
2019-06-26 07:00:00 15.4 3 Sur 10 Oeste 0 -- -- 70
2019-06-26 06:00:00 14.9 3 Sudoeste 5 Sudoeste 0 -- -- 72
2019-06-26 05:00:00 15.5 4 Sur 7 Sur 0 -- -- 67
2019-06-26 04:00:00 14.5 3 Sur 6 Sur 0 -- -- 77
2019-06-26 03:00:00 16.6 2 Sur 5 Nordeste 0 -- -- 71
2019-06-26 02:00:00 19 3 Noroeste 9 Nordeste 0 -- -- 67
2019-06-26 01:00:00 20.1 3 Nordeste 9 Este 0 -- -- 64
2019-06-26 00:00:00 20.7 7 Este 16 Nordeste 0 -- -- 61
2019-06-25 23:00:00 21.7 2 Nordeste 9 Nordeste 0 -- -- 57
2019-06-25 22:00:00 23.9 4 Noroeste 11 Norte 0 -- -- 50
2019-06-25 21:00:00 26.7 5 Noroeste 17 Noroeste 0 -- -- 41
2019-06-25 20:00:00 27.5 9 Noroeste 23 Norte 0 -- -- 40
2019-06-25 19:00:00 27.5 12 Noroeste 23 Sudoeste 0 -- -- 38
2019-06-25 18:00:00 29.6 8 Sudoeste 23 Sudoeste 0 -- -- 31
2019-06-25 17:00:00 28.6 9 Sudoeste 25 Sudoeste 0 -- -- 32
2019-06-25 16:00:00 28.4 10 Sudoeste 32 Sur 0 -- -- 32
2019-06-25 15:00:00 28.9 10 Este 40 Sur 0 -- -- 33
2019-06-25 14:00:00 26.9 10 Sur 21 Oeste 0 -- -- 41
2019-06-25 13:00:00 25.5 9 Oeste 21 Oeste 0 -- -- 45
2019-06-25 12:00:00 23.9 8 Noroeste 21 Sudoeste 0 -- -- 48
2019-06-25 11:00:00 22.5 9 Sudoeste 20 Sudoeste 0 -- -- 52
2019-06-25 10:00:00 21 5 Oeste 13 Oeste 0 -- -- 57
2019-06-25 09:00:00 16.8 0 Calma 3 Nordeste 0 -- -- 74
2019-06-25 08:00:00 13.7 0 Calma 4 Noroeste 0 -- -- 79
2019-06-25 07:00:00 12.3 0 Calma 3 Sudoeste 0 -- -- 80
2019-06-25 06:00:00 12.3 0 Calma 4 Norte 0 -- -- 81
2019-06-25 05:00:00 11.4 0 Calma 4 Sur 0 -- -- 83
2019-06-25 04:00:00 11 0 Calma 4 Sudeste 0 -- -- 83
2019-06-25 03:00:00 11.8 0 Calma 6 Sudeste 0 -- -- 81
2019-06-25 02:00:00 12.3 4 Sudeste 5 Sudeste 0 -- -- 81
2019-06-25 01:00:00 13.1 0 Calma 10 Norte 0 -- -- 79
2019-06-25 00:00:00 13.9 7 Norte 14 Norte 0 -- -- 75
2019-06-24 23:00:00 14.7 4 Sudeste 12 Nordeste 0 -- -- 71
2019-06-24 22:00:00 15.4 6 Este 11 Nordeste 0 -- -- 68
2019-06-24 21:00:00 15.8 5 Norte 17 Noroeste 0 -- -- 67
2019-06-24 20:00:00 16.6 9 Oeste 21 Oeste 0 -- -- 65
2019-06-24 19:00:00 18 14 Noroeste 29 Noroeste 0 -- -- 61
2019-06-24 18:00:00 20.7 18 Noroeste 36 Noroeste 0 -- -- 53
2019-06-24 17:00:00 23.2 15 Noroeste 32 Norte 0 -- -- 45
2019-06-24 16:00:00 24.3 15 Noroeste 36 Noroeste 0 -- -- 45
2019-06-24 15:00:00 23.9 18 Noroeste 33 Noroeste 0 -- -- 47
2019-06-24 14:00:00 25.6 9 Sudoeste 20 Sudoeste 0 -- -- 39
2019-06-24 13:00:00 24.5 9 Sudoeste 27 Sudoeste 0 -- -- 40
2019-06-24 12:00:00 23.7 10 Sudoeste 22 Oeste 0 -- -- 43
2019-06-24 11:00:00 22.1 5 Noroeste 12 Noroeste 0 -- -- 48
2019-06-24 10:00:00 19.9 2 Sudoeste 7 Nordeste 0 -- -- 46
2019-06-24 09:00:00 16.8 3 Nordeste 5 Noroeste 0 -- -- 50
2019-06-24 08:00:00 15.6 2 Sudoeste 6 Sur 0 -- -- 53
2019-06-24 07:00:00 14.7 5 Sudeste 9 Sur 0 -- -- 53
2019-06-24 06:00:00 14.5 4 Sur 8 Sudeste 0 -- -- 52
2019-06-24 05:00:00 15 3 Sudoeste 8 Sur 0 -- -- 49
2019-06-24 04:00:00 15.5 3 Sudeste 5 Sur 0 -- -- 46
2019-06-24 03:00:00 16.4 2 Sur 5 Sur 0 -- -- 44
2019-06-24 02:00:00 17.6 3 Sudoeste 7 Sudoeste 0 -- -- 41
2019-06-24 01:00:00 18.2 3 Norte 7 Sudeste 0 -- -- 39
2019-06-24 00:00:00 19.1 4 Sur 8 Sur 0 -- -- 36
2019-06-23 23:00:00 20.5 3 Sur 9 Sudoeste 0 -- -- 32
2019-06-23 22:00:00 21.7 2 Sur 5 Noroeste 0 -- -- 31
2019-06-23 21:00:00 23.6 3 Noroeste 14 Oeste 0 -- -- 26
2019-06-23 20:00:00 25 8 Sudoeste 21 Sudoeste 0 -- -- 24
2019-06-23 19:00:00 25.8 14 Sudoeste 30 Sur 0 -- -- 25
2019-06-23 18:00:00 27.1 14 Sur 30 Sudoeste 0 -- -- 22
2019-06-23 17:00:00 27.3 14 Sudoeste 30 Sur 0 -- -- 21
2019-06-23 16:00:00 26.7 15 Oeste 31 Sudoeste 0 -- -- 25
2019-06-23 15:00:00 26.3 18 Sudoeste 34 Sudoeste 0 -- -- 27
2019-06-23 14:00:00 26.1 15 Sudoeste 38 Sur 0 -- -- 26
2019-06-23 13:00:00 27 22 Sur 45 Sudoeste 0 -- -- 22
2019-06-23 12:00:00 26.2 15 Sudoeste 33 Sur 0 -- -- 24
2019-06-23 11:00:00 23.8 10 Sudoeste 21 Sudoeste 0 -- -- 24
2019-06-23 10:00:00 20.4 4 Sudeste 7 Sudeste 0 -- -- 35
2019-06-23 09:00:00 15.2 0 Calma 6 Sur 0 -- -- 48
2019-06-23 08:00:00 11.2 3 Sur 6 Sur 0 -- -- 52
2019-06-23 07:00:00 11.5 3 Sur 5 Este 0 -- -- 48
2019-06-23 06:00:00 11.9 0 Calma 8 Sur 0 -- -- 50
2019-06-23 05:00:00 13.5 3 Sudoeste 8 Oeste 0 -- -- 41
2019-06-23 04:00:00 13.4 0 Calma 4 Sur 0 -- -- 44
2019-06-23 03:00:00 14.4 4 Sur 7 Sudeste 0 -- -- 40
2019-06-23 02:00:00 14.9 3 Sur 8 Sur 0 -- -- 39
2019-06-23 01:00:00 16 0 Calma 6 Sur 0 -- -- 40
2019-06-23 00:00:00 18.2 4 Sur 10 Sudoeste 0 -- -- 36
2019-06-22 23:00:00 20.7 3 Sudoeste 11 Sudoeste 0 -- -- 31
2019-06-22 22:00:00 23.8 4 Sudoeste 22 Oeste 0 -- -- 27
2019-06-22 21:00:00 25.8 13 Sudoeste 29 Oeste 0 -- -- 25
2019-06-22 20:00:00 27.1 14 Sudoeste 32 Oeste 0 -- -- 25
2019-06-22 19:00:00 27.3 17 Sudoeste 34 Sudoeste 0 -- -- 27
2019-06-22 18:00:00 27.1 16 Sudoeste 32 Sudoeste 0 -- -- 27
2019-06-22 17:00:00 27.5 18 Sudoeste 33 Sudoeste 0 -- -- 25
2019-06-22 16:00:00 27.7 13 Sudoeste 30 Sudoeste 0 -- -- 26
2019-06-22 15:00:00 28 15 Sudoeste 32 Oeste 0 -- -- 25
2019-06-22 14:00:00 27.7 12 Sudoeste 32 Sudoeste 0 -- -- 25
2019-06-22 13:00:00 26.9 12 Sudoeste 30 Sudoeste 0 -- -- 26
2019-06-22 12:00:00 25.5 15 Sudoeste 25 Oeste 0 -- -- 27
2019-06-22 11:00:00 24.2 10 Sudoeste 19 Sudoeste 0 -- -- 31
2019-06-22 10:00:00 21.3 2 Nordeste 5 Este 0 -- -- 42
2019-06-22 09:00:00 15.1 0 Calma 3 Sudeste 0 -- -- 62
2019-06-22 08:00:00 11.8 0 Calma 3 Sur 0 -- -- 69
2019-06-22 07:00:00 11.7 0 Calma 4 Sudoeste 0 -- -- 67
2019-06-22 06:00:00 14.7 0 Calma 18 Sudeste 0 -- -- 58
2019-06-22 05:00:00 15.3 11 Sudeste 18 Sudeste 0 -- -- 58
2019-06-22 04:00:00 13.8 7 Sudeste 12 Sudeste 0 -- -- 62
2019-06-22 03:00:00 12.8 2 Este 9 Sudeste 0 -- -- 63
2019-06-22 02:00:00 11.9 4 Este 8 Este 0 -- -- 62
2019-06-22 01:00:00 12.9 3 Sudeste 5 Sudeste 0 -- -- 57
2019-06-22 00:00:00 14.5 2 Sudeste 5 Sudeste 0 -- -- 52
2019-06-21 23:00:00 16.6 0 Calma 10 Norte 0 -- -- 48
2019-06-21 22:00:00 19.3 9 Norte 17 Noroeste 0 -- -- 41
2019-06-21 21:00:00 21.7 15 Norte 23 Norte 0 -- -- 36
2019-06-21 20:00:00 23.1 12 Noroeste 24 Norte 0 -- -- 33
2019-06-21 19:00:00 23.5 10 Norte 26 Norte 0 -- -- 32
2019-06-21 18:00:00 23.3 9 Norte 23 Norte 0 -- -- 33
2019-06-21 17:00:00 22.5 14 Norte 25 Norte 0 -- -- 35
2019-06-21 16:00:00 22.7 10 Norte 25 Norte 0 -- -- 37
2019-06-21 15:00:00 21.6 13 Nordeste 26 Nordeste 0 -- -- 41
2019-06-21 14:00:00 20.4 12 Nordeste 28 Este 0 -- -- 47
2019-06-21 13:00:00 18.7 13 Nordeste 26 Este 0 -- -- 53
2019-06-21 12:00:00 16.7 13 Nordeste 25 Nordeste 0 -- -- 62
2019-06-21 11:00:00 14.7 11 Nordeste 26 Norte 0 -- -- 72
2019-06-21 10:00:00 15.1 12 Nordeste 21 Nordeste 0 -- -- 72
2019-06-21 09:00:00 13.9 9 Nordeste 17 Norte 0 -- -- 79
2019-06-21 08:00:00 10.5 0 Calma 4 Nordeste 0 -- -- 92
2019-06-21 07:00:00 9.2 0 Calma 3 Norte 0 -- -- 87
2019-06-21 06:00:00 11.2 0 Calma 7 Noroeste 0 -- -- 83
2019-06-21 05:00:00 12.3 2 Norte 10 Nordeste 0 -- -- 84
2019-06-21 04:00:00 14 8 Nordeste 18 Nordeste 0 -- -- 80
2019-06-21 03:00:00 14.3 9 Nordeste 23 Nordeste 0 -- -- 80
2019-06-21 02:00:00 14.5 3 Nordeste 14 Norte 0 -- -- 79
2019-06-21 01:00:00 14.6 10 Nordeste 26 Norte 0 -- -- 78
2019-06-21 00:00:00 15.6 17 Norte 28 Norte 0 -- -- 73
2019-06-20 23:00:00 17.2 3 Noroeste 21 Noroeste 0 -- -- 54
2019-06-20 22:00:00 19 11 Noroeste 26 Oeste 0 -- -- 49
2019-06-20 21:00:00 20.9 10 Noroeste 26 Noroeste 0 -- -- 47
2019-06-20 20:00:00 21.9 12 Noroeste 32 Noroeste 0 -- -- 44
2019-06-20 19:00:00 23.7 13 Oeste 40 Oeste 0 -- -- 36
2019-06-20 18:00:00 24.5 19 Sudoeste 36 Oeste 0 -- -- 33
2019-06-20 17:00:00 24.7 14 Sudoeste 32 Oeste 0 -- -- 31
2019-06-20 16:00:00 24.4 14 Sudoeste 28 Sudoeste 0 -- -- 33
2019-06-20 15:00:00 23.3 9 Oeste 24 Sudoeste 0 -- -- 39
2019-06-20 14:00:00 23.1 12 Oeste 26 Oeste 0 -- -- 40
2019-06-20 13:00:00 21.8 9 Sudoeste 15 Oeste 0 -- -- 43
2019-06-20 12:00:00 21 4 Nordeste 17 Nordeste 0 -- -- 46
2019-06-20 11:00:00 20.2 7 Nordeste 17 Nordeste 0 -- -- 48
2019-06-20 10:00:00 17.4 3 Nordeste 11 Este 0 -- -- 57
2019-06-20 09:00:00 15.6 3 Nordeste 6 Nordeste 0 -- -- 66
2019-06-20 08:00:00 13.7 0 Calma 2 Sudeste 0 -- -- 71
2019-06-20 07:00:00 14.3 0 Calma 2 Este 0 -- -- 69
2019-06-20 06:00:00 15 0 Calma 4 Nordeste 0 -- -- 67
2019-06-20 05:00:00 15.3 0 Calma 9 Norte 0 -- -- 66
2019-06-20 04:00:00 15.3 3 Sudoeste 6 Oeste 0 -- -- 71
2019-06-20 03:00:00 14.1 0 Calma 5 Sudoeste 0 -- -- 74
2019-06-20 02:00:00 12.6 2 Sur 5 Sur 0 -- -- 73
2019-06-20 01:00:00 13.2 3 Sur 8 Sur 0 -- -- 71
2019-06-20 00:00:00 15.4 3 Sudoeste 8 Oeste 0 -- -- 62
2019-06-19 23:00:00 17.6 5 Sudoeste 14 Sudoeste 0 -- -- 57
2019-06-19 22:00:00 19.2 8 Sudoeste 21 Oeste 0 -- -- 51
2019-06-19 21:00:00 20.9 14 Oeste 27 Sudoeste 0 -- -- 44
2019-06-19 20:00:00 22 15 Oeste 34 Sudoeste 0 -- -- 42
2019-06-19 19:00:00 22.8 16 Oeste 36 Sudoeste 0 -- -- 40
2019-06-19 18:00:00 22.7 20 Oeste 37 Oeste 0 -- -- 40
2019-06-19 17:00:00 22.7 16 Oeste 38 Oeste 0 -- -- 39
2019-06-19 16:00:00 22.7 14 Oeste 31 Oeste 0 -- -- 38
2019-06-19 15:00:00 22.2 16 Oeste 33 Oeste 0 -- -- 41
2019-06-19 14:00:00 21.4 18 Sudoeste 31 Sudoeste 0 -- -- 41
2019-06-19 13:00:00 20.7 15 Sudoeste 31 Sudoeste 0 -- -- 46
2019-06-19 12:00:00 19.1 17 Sudoeste 29 Sudoeste 0 -- -- 51
2019-06-19 11:00:00 17 11 Sudoeste 26 Sudoeste 0 -- -- 68
2019-06-19 10:00:00 16.2 15 Sudoeste 27 Sudoeste 0 -- -- 70
2019-06-19 09:00:00 16.2 15 Sudoeste 26 Sudoeste 0 -- -- 69
2019-06-19 08:00:00 14.2 7 Sur 15 Sur 0 -- -- 83
2019-06-19 07:00:00 12.5 0 Calma 19 Sur 0 -- -- 86
2019-06-19 06:00:00 13.3 6 Sudoeste 21 Sudoeste 0 -- -- 84
2019-06-19 05:00:00 13.8 12 Sudoeste 26 Sudoeste 0 -- -- 81
2019-06-19 04:00:00 14.3 9 Sudoeste 20 Sudoeste 0 -- -- 74
2019-06-19 03:00:00 15.4 10 Sudoeste 25 Oeste 0 -- -- 66
2019-06-19 02:00:00 16.1 17 Sudoeste 27 Sudoeste 0 -- -- 65
2019-06-19 01:00:00 16.6 8 Sudoeste 22 Sudoeste 0 -- -- 68
2019-06-19 00:00:00 17.3 12 Sudoeste 18 Sudoeste 0 -- -- 65
2019-06-18 23:00:00 18.1 7 Sudoeste 30 Sudoeste 0 -- -- 62
2019-06-18 22:00:00 18.8 13 Sudoeste 44 Sudoeste 0 -- -- 58
2019-06-18 21:00:00 20.3 22 Sudoeste 40 Sudoeste 0 -- -- 50
2019-06-18 20:00:00 21.1 22 Sudoeste 44 Sudoeste 0 -- -- 47
2019-06-18 19:00:00 22 23 Sudoeste 46 Sudoeste 0 -- -- 47
2019-06-18 18:00:00 23 23 Sudoeste 44 Sudoeste 0 -- -- 42
2019-06-18 17:00:00 22.8 24 Sudoeste 50 Sudoeste 0 -- -- 43
2019-06-18 16:00:00 24.1 22 Sudoeste 45 Sudoeste 0 -- -- 33
2019-06-18 15:00:00 23.6 23 Sudoeste 42 Sudoeste 0 -- -- 32
2019-06-18 14:00:00 23.4 21 Sudoeste 39 Sudoeste 0 -- -- 29
2019-06-18 13:00:00 23.4 20 Sudoeste 40 Sudoeste 0 -- -- 21
2019-06-18 12:00:00 22.4 10 Sudoeste 26 Sudoeste 0 -- -- 22
2019-06-18 11:00:00 20.9 14 Sudoeste 26 Sudoeste 0 -- -- 26
2019-06-18 10:00:00 19.1 13 Oeste 23 Sudoeste 0 -- -- 33
2019-06-18 09:00:00 17 13 Sudoeste 26 Sudoeste 0 -- -- 44
2019-06-18 08:00:00 14.8 13 Sudoeste 22 Sudoeste 0 -- -- 51
2019-06-18 07:00:00 14.4 12 Sudoeste 26 Sudoeste 0 -- -- 56
2019-06-18 06:00:00 14.5 12 Sudoeste 22 Sudoeste 0 -- -- 46
2019-06-18 05:00:00 11.9 8 Sur 13 Sudeste 0 -- -- 40
2019-06-18 04:00:00 12.2 5 Sur 8 Sudeste 0 -- -- 38
2019-06-18 03:00:00 14.5 6 Sudoeste 10 Sudoeste 0 -- -- 33
2019-06-18 02:00:00 16.3 3 Noroeste 9 Sur 0 -- -- 30
2019-06-18 01:00:00 17.2 5 Sur 8 Sur 0 -- -- 29
2019-06-18 00:00:00 18.9 4 Sur 9 Sudeste 0 -- -- 27
2019-06-17 23:00:00 19.8 2 Sur 6 Sudoeste 0 -- -- 27
2019-06-17 22:00:00 22.4 4 Oeste 14 Oeste 0 -- -- 20
2019-06-17 21:00:00 23.8 9 Sudoeste 26 Sudoeste 0 -- -- 18
2019-06-17 20:00:00 24.6 10 Sudoeste 27 Oeste 0 -- -- 17
2019-06-17 19:00:00 25.4 16 Sudoeste 36 Sudoeste 0 -- -- 19
2019-06-17 18:00:00 26.2 18 Oeste 37 Sudoeste 0 -- -- 23
2019-06-17 17:00:00 27.1 17 Oeste 34 Noroeste 0 -- -- 21
2019-06-17 16:00:00 28.1 11 Sur 39 Sudoeste 0 -- -- 17
2019-06-17 15:00:00 27.9 17 Sudoeste 35 Sudoeste 0 -- -- 16
2019-06-17 14:00:00 26.7 12 Sudoeste 33 Sur 0 -- -- 21
2019-06-17 13:00:00 25.8 12 Sudoeste 24 Sudoeste 0 -- -- 23
2019-06-17 12:00:00 24.5 9 Sudoeste 22 Oeste 0 -- -- 27
2019-06-17 11:00:00 22.8 9 Oeste 20 Sudoeste 0 -- -- 28
2019-06-17 10:00:00 21.6 9 Sudoeste 18 Sudoeste 0 -- -- 29
2019-06-17 09:00:00 18.7 8 Sudoeste 14 Sudoeste 0 -- -- 38
2019-06-17 08:00:00 12.2 4 Sur 8 Sudeste 0 -- -- 46
2019-06-17 07:00:00 8.3 4 Sur 6 Sudeste 0 -- -- 62
2019-06-17 06:00:00 8.8 5 Sur 8 Sudeste 0 -- -- 63
2019-06-17 05:00:00 8.4 4 Sur 6 Sur 0 -- -- 62
2019-06-17 04:00:00 11.5 0 Calma 7 Sudeste 0 -- -- 50
2019-06-17 03:00:00 12.5 2 Sur 19 Noroeste 0 -- -- 47
2019-06-17 02:00:00 13.2 4 Sudoeste 9 Oeste 0 -- -- 45
2019-06-17 01:00:00 13.4 4 Sur 8 Sudeste 0 -- -- 44
2019-06-17 00:00:00 14.7 5 Sudeste 8 Sur 0 -- -- 40
2019-06-16 23:00:00 16.9 3 Sudeste 7 Sudoeste 0 -- -- 36
2019-06-16 22:00:00 21.7 6 Sudoeste 19 Sudoeste 0 -- -- 27
2019-06-16 21:00:00 24.5 12 Oeste 30 Sudoeste 0 -- -- 22
2019-06-16 20:00:00 25.1 13 Sudoeste 29 Sudoeste 0 -- -- 22
2019-06-16 19:00:00 25.6 14 Oeste 30 Oeste 0 -- -- 20
2019-06-16 18:00:00 26.2 16 Sudoeste 34 Sudoeste 0 -- -- 19
2019-06-16 17:00:00 26.1 17 Sudoeste 34 Oeste 0 -- -- 23
2019-06-16 16:00:00 25.7 11 Oeste 22 Norte 0 -- -- 22
2019-06-16 15:00:00 25.3 12 Noroeste 32 Noroeste 0 -- -- 21
2019-06-16 14:00:00 24.9 8 Noroeste 19 Norte 0 -- -- 23
2019-06-16 13:00:00 23.7 8 Oeste 19 Noroeste 0 -- -- 25
2019-06-16 12:00:00 22.7 9 Noroeste 22 Noroeste 0 -- -- 26
2019-06-16 11:00:00 20.5 3 Norte 9 Nordeste 0 -- -- 30
2019-06-16 10:00:00 17.1 3 Nordeste 8 Nordeste 0 -- -- 38
2019-06-16 09:00:00 13 4 Norte 6 Norte 0 -- -- 48
2019-06-16 08:00:00 7 0 Calma 5 Sur 0 -- -- 66
2019-06-16 07:00:00 4.5 3 Sur 6 Sur 0 -- -- 72
2019-06-16 06:00:00 4.9 4 Sur 5 Sur 0 -- -- 69
2019-06-16 05:00:00 5.3 2 Sur 5 Sur 0 -- -- 67
2019-06-16 04:00:00 6.3 0 Calma 4 Sudeste 0 -- -- 62
2019-06-16 03:00:00 7 3 Sur 5 Sudeste 0 -- -- 61
2019-06-16 02:00:00 7.9 3 Sur 6 Sur 0 -- -- 57
2019-06-16 01:00:00 9.1 4 Sur 6 Sur 0 -- -- 52
2019-06-16 00:00:00 10.3 4 Sur 7 Sur 0 -- -- 48